NCAR-RAP Real-Time Weather Data

Output produced by METARs form (01 December 2020  17:29 UTC)
found at http://weather.rap.ucar.edu/surface/
 
KMEM 011654Z 28005KT 10SM CLR 06/M07 A3025 RMK AO2 SLP246 T00611067 $
KMEM 011554Z 19004KT 10SM CLR 04/M07 A3025 RMK AO2 SLP247 T00391067 $
KMEM 011454Z VRB03KT 10SM CLR 02/M04 A3025 RMK AO2 SLP245 T00171039 53014 $
KMEM 011354Z 00000KT 10SM CLR M02/M04 A3023 RMK AO2 SLP240 T10221044 $
KMEM 011254Z 00000KT 10SM CLR M03/M07 A3022 RMK AO2 SLP235 T10331067 $
KMEM 011154Z 00000KT 10SM CLR M03/M06 A3020 RMK AO2 SLP231 T10331061 11011 21039 53011 $
KMEM 011054Z 00000KT 10SM CLR M03/M07 A3018 RMK AO2 SLP224 T10331067 $
KMEM 010954Z 00000KT 10SM CLR M03/M06 A3018 RMK AO2 SLP220 T10281061 $
KMEM 010854Z 28003KT 10SM CLR M02/M06 A3017 RMK AO2 SLP219 T10171061 53002 $
KMEM 010754Z 26004KT 10SM CLR M02/M06 A3016 RMK AO2 SLP215 T10221061 $
KMEM 010654Z 29004KT 10SM CLR M02/M07 A3016 RMK AO2 SLP216 T10221067 $
KMEM 010554Z 27003KT 10SM CLR M02/M06 A3017 RMK AO2 SLP217 T10171061 10011 21022 400721022 51002 $
KMEM 010454Z 00000KT 10SM CLR M01/M06 A3017 RMK AO2 SLP217 T10061061 $
KMEM 010354Z 00000KT 10SM CLR M01/M06 A3017 RMK AO2 SLP217 T10061056 $